sensor_id;sensor_type;location;lat;lon;timestamp;pressure;altitude;pressure_sealevel;temperature;humidity
36010;BME280;22076;52.182;5.404;2024-03-23T00:52:38;102536.47;;;8.60;100.00
36010;BME280;22076;52.182;5.404;2024-03-23T00:55:04;102506.41;;;7.98;100.00
36010;BME280;22076;52.182;5.404;2024-03-23T00:57:30;102490.22;;;7.82;100.00
36010;BME280;22076;52.182;5.404;2024-03-23T00:59:56;102474.66;;;7.79;100.00
36010;BME280;22076;52.182;5.404;2024-03-23T01:02:22;102474.63;;;7.81;100.00
36010;BME280;22076;52.182;5.404;2024-03-23T01:04:48;102477.28;;;7.77;100.00
36010;BME280;22076;52.182;5.404;2024-03-23T01:07:15;102480.78;;;7.76;100.00
36010;BME280;22076;52.182;5.404;2024-03-23T01:09:42;102479.84;;;7.81;100.00
36010;BME280;22076;52.182;5.404;2024-03-23T01:12:08;102474.75;;;7.74;100.00
36010;BME280;22076;52.182;5.404;2024-03-23T01:14:34;102472.19;;;7.73;100.00
36010;BME280;22076;52.182;5.404;2024-03-23T01:17:01;102466.97;;;7.73;100.00
36010;BME280;22076;52.182;5.404;2024-03-23T01:19:27;102466.09;;;7.72;100.00
36010;BME280;22076;52.182;5.404;2024-03-23T01:21:53;102464.41;;;7.71;100.00
36010;BME280;22076;52.182;5.404;2024-03-23T01:24:19;102460.00;;;7.73;100.00
36010;BME280;22076;52.182;5.404;2024-03-23T01:26:46;102459.06;;;7.77;100.00
36010;BME280;22076;52.182;5.404;2024-03-23T01:29:12;102453.00;;;7.77;100.00
36010;BME280;22076;52.182;5.404;2024-03-23T01:31:38;102450.47;;;7.74;100.00
36010;BME280;22076;52.182;5.404;2024-03-23T01:34:04;102436.59;;;7.73;100.00
36010;BME280;22076;52.182;5.404;2024-03-23T01:36:31;102439.19;;;7.73;100.00
36010;BME280;22076;52.182;5.404;2024-03-23T01:38:56;102434.88;;;7.74;100.00
36010;BME280;22076;52.182;5.404;2024-03-23T01:41:24;102427.97;;;7.71;100.00
36010;BME280;22076;52.182;5.404;2024-03-23T01:43:51;102428.88;;;7.70;100.00
36010;BME280;22076;52.182;5.404;2024-03-23T01:46:17;102428.94;;;7.66;100.00
36010;BME280;22076;52.182;5.404;2024-03-23T01:48:45;102420.25;;;7.67;100.00
36010;BME280;22076;52.182;5.404;2024-03-23T01:51:12;102418.56;;;7.64;100.00
36010;BME280;22076;52.182;5.404;2024-03-23T01:53:38;102410.88;;;7.59;100.00
36010;BME280;22076;52.182;5.404;2024-03-23T01:56:05;102412.63;;;7.57;100.00
36010;BME280;22076;52.182;5.404;2024-03-23T01:58:31;102403.97;;;7.55;100.00
36010;BME280;22076;52.182;5.404;2024-03-23T02:00:59;102400.56;;;7.53;100.00
36010;BME280;22076;52.182;5.404;2024-03-23T02:03:25;102397.16;;;7.50;100.00
36010;BME280;22076;52.182;5.404;2024-03-23T02:05:52;102390.22;;;7.49;100.00
36010;BME280;22076;52.182;5.404;2024-03-23T02:08:20;102386.00;;;7.43;100.00
36010;BME280;22076;52.182;5.404;2024-03-23T02:10:47;102388.66;;;7.40;100.00
36010;BME280;22076;52.182;5.404;2024-03-23T02:13:14;102385.25;;;7.38;100.00
36010;BME280;22076;52.182;5.404;2024-03-23T02:15:40;102387.03;;;7.34;100.00
36010;BME280;22076;52.182;5.404;2024-03-23T02:18:08;102383.63;;;7.32;100.00
36010;BME280;22076;52.182;5.404;2024-03-23T02:20:35;102386.31;;;7.26;100.00
36010;BME280;22076;52.182;5.404;2024-03-23T02:23:02;102382.00;;;7.25;100.00
36010;BME280;22076;52.182;5.404;2024-03-23T02:25:28;102371.66;;;7.20;100.00
36010;BME280;22076;52.182;5.404;2024-03-23T02:27:54;102367.38;;;7.18;100.00
36010;BME280;22076;52.182;5.404;2024-03-23T02:30:20;102370.03;;;7.15;100.00
36010;BME280;22076;52.182;5.404;2024-03-23T02:32:46;102367.97;;;7.34;100.00
36010;BME280;22076;52.182;5.404;2024-03-23T02:35:13;102356.16;;;7.16;100.00
36010;BME280;22076;52.182;5.404;2024-03-23T02:37:39;102352.72;;;7.14;100.00
36010;BME280;22076;52.182;5.404;2024-03-23T02:40:07;102349.28;;;7.13;100.00
36010;BME280;22076;52.182;5.404;2024-03-23T02:42:33;102365.22;;;7.43;100.00
36010;BME280;22076;52.182;5.404;2024-03-23T02:44:59;102369.31;;;7.55;100.00
36010;BME280;22076;52.182;5.404;2024-03-23T02:47:25;102364.97;;;7.57;100.00
36010;BME280;22076;52.182;5.404;2024-03-23T02:49:51;102367.81;;;7.88;100.00
36010;BME280;22076;52.182;5.404;2024-03-23T02:52:17;102352.47;;;7.74;100.00
36010;BME280;22076;52.182;5.404;2024-03-23T02:54:43;102343.34;;;7.53;100.00
36010;BME280;22076;52.182;5.404;2024-03-23T02:57:11;102339.06;;;7.51;100.00
36010;BME280;22076;52.182;5.404;2024-03-23T02:59:38;102333.03;;;7.49;100.00
36010;BME280;22076;52.182;5.404;2024-03-23T03:02:04;102330.50;;;7.46;100.00
36010;BME280;22076;52.182;5.404;2024-03-23T03:04:32;102322.63;;;7.49;100.00
36010;BME280;22076;52.182;5.404;2024-03-23T03:06:58;102321.75;;;7.50;100.00
36010;BME280;22076;52.182;5.404;2024-03-23T03:09:24;102319.44;;;7.34;100.00
36010;BME280;22076;52.182;5.404;2024-03-23T03:11:50;102317.72;;;7.33;100.00
36010;BME280;22076;52.182;5.404;2024-03-23T03:14:18;102310.78;;;7.34;100.00
36010;BME280;22076;52.182;5.404;2024-03-23T03:16:44;102304.84;;;7.25;100.00
36010;BME280;22076;52.182;5.404;2024-03-23T03:19:10;102306.56;;;7.26;100.00
36010;BME280;22076;52.182;5.404;2024-03-23T03:21:36;102301.34;;;7.28;100.00
36010;BME280;22076;52.182;5.404;2024-03-23T03:24:05;102296.13;;;7.30;100.00
36010;BME280;22076;52.182;5.404;2024-03-23T03:26:31;102299.66;;;7.27;100.00
36010;BME280;22076;52.182;5.404;2024-03-23T03:28:58;102279.91;;;7.15;100.00
36010;BME280;22076;52.182;5.404;2024-03-23T03:31:25;102285.13;;;7.17;100.00
36010;BME280;22076;52.182;5.404;2024-03-23T03:33:51;102277.31;;;7.15;100.00
36010;BME280;22076;52.182;5.404;2024-03-23T03:36:17;102265.16;;;7.17;100.00
36010;BME280;22076;52.182;5.404;2024-03-23T03:38:43;102256.59;;;7.12;100.00
36010;BME280;22076;52.182;5.404;2024-03-23T03:41:09;102257.53;;;7.08;100.00
36010;BME280;22076;52.182;5.404;2024-03-23T03:43:35;102252.31;;;7.09;100.00
36010;BME280;22076;52.182;5.404;2024-03-23T03:46:01;102256.56;;;7.14;100.00
36010;BME280;22076;52.182;5.404;2024-03-23T03:48:29;102247.13;;;7.09;100.00
36010;BME280;22076;52.182;5.404;2024-03-23T03:50:55;102243.69;;;7.07;100.00
36010;BME280;22076;52.182;5.404;2024-03-23T03:53:22;102216.81;;;7.08;100.00
36010;BME280;22076;52.182;5.404;2024-03-23T03:55:47;102226.34;;;7.08;100.00
36010;BME280;22076;52.182;5.404;2024-03-23T03:58:14;102226.41;;;7.05;100.00
36010;BME280;22076;52.182;5.404;2024-03-23T04:00:39;102218.75;;;6.99;100.00
36010;BME280;22076;52.182;5.404;2024-03-23T04:03:06;102204.09;;;6.93;100.00
36010;BME280;22076;52.182;5.404;2024-03-23T04:05:33;102211.97;;;6.90;100.00
36010;BME280;22076;52.182;5.404;2024-03-23T04:07:59;102210.25;;;6.89;100.00
36010;BME280;22076;52.182;5.404;2024-03-23T04:10:25;102199.88;;;6.89;100.00
36010;BME280;22076;52.182;5.404;2024-03-23T04:12:52;102191.22;;;6.88;100.00
36010;BME280;22076;52.182;5.404;2024-03-23T04:15:19;102190.41;;;6.85;100.00
36010;BME280;22076;52.182;5.404;2024-03-23T04:17:45;102182.69;;;6.82;100.00
36010;BME280;22076;52.182;5.404;2024-03-23T04:20:11;102182.72;;;6.78;100.00
36010;BME280;22076;52.182;5.404;2024-03-23T04:22:43;102184.41;;;6.81;100.00
36010;BME280;22076;52.182;5.404;2024-03-23T04:25:08;102178.28;;;6.85;100.00
36010;BME280;22076;52.182;5.404;2024-03-23T04:27:36;102183.53;;;6.82;100.00
36010;BME280;22076;52.182;5.404;2024-03-23T04:30:01;102172.31;;;6.82;100.00
36010;BME280;22076;52.182;5.404;2024-03-23T04:32:29;102172.16;;;6.89;100.00
36010;BME280;22076;52.182;5.404;2024-03-23T04:34:55;102171.25;;;6.90;100.00
36010;BME280;22076;52.182;5.404;2024-03-23T04:37:21;102162.53;;;6.93;100.00
36010;BME280;22076;52.182;5.404;2024-03-23T04:39:50;102170.44;;;6.88;100.00
36010;BME280;22076;52.182;5.404;2024-03-23T04:42:16;102162.66;;;6.88;100.00
36010;BME280;22076;52.182;5.404;2024-03-23T04:44:43;102170.44;;;6.88;100.00
36010;BME280;22076;52.182;5.404;2024-03-23T04:47:10;102172.13;;;6.91;100.00
36010;BME280;22076;52.182;5.404;2024-03-23T04:49:36;102160.88;;;6.89;100.00
36010;BME280;22076;52.182;5.404;2024-03-23T04:52:04;102155.72;;;6.87;100.00
36010;BME280;22076;52.182;5.404;2024-03-23T04:54:30;102149.84;;;6.79;100.00
36010;BME280;22076;52.182;5.404;2024-03-23T04:56:59;102145.56;;;6.76;100.00
36010;BME280;22076;52.182;5.404;2024-03-23T04:59:25;102140.41;;;6.73;100.00
36010;BME280;22076;52.182;5.404;2024-03-23T05:01:51;102137.94;;;6.67;100.00
36010;BME280;22076;52.182;5.404;2024-03-23T05:04:18;102130.19;;;6.64;100.00
36010;BME280;22076;52.182;5.404;2024-03-23T05:06:43;102123.13;;;6.24;100.00
36010;BME280;22076;52.182;5.404;2024-03-23T05:09:10;102126.69;;;6.18;100.00
36010;BME280;22076;52.182;5.404;2024-03-23T05:11:37;102124.19;;;6.12;100.00
36010;BME280;22076;52.182;5.404;2024-03-23T05:14:05;102119.91;;;6.09;100.00
36010;BME280;22076;52.182;5.404;2024-03-23T05:16:30;102131.19;;;6.08;100.00
36010;BME280;22076;52.182;5.404;2024-03-23T05:18:57;102126.09;;;6.04;100.00
36010;BME280;22076;52.182;5.404;2024-03-23T05:21:22;102137.41;;;6.00;100.00
36010;BME280;22076;52.182;5.404;2024-03-23T05:23:50;102127.88;;;6.00;100.00
36010;BME280;22076;52.182;5.404;2024-03-23T05:26:16;102126.13;;;5.98;100.00
36010;BME280;22076;52.182;5.404;2024-03-23T05:28:43;102133.97;;;5.96;100.00
36010;BME280;22076;52.182;5.404;2024-03-23T05:31:10;102132.25;;;5.95;100.00
36010;BME280;22076;52.182;5.404;2024-03-23T05:33:37;102134.00;;;5.94;100.00
36010;BME280;22076;52.182;5.404;2024-03-23T05:36:04;102145.59;;;6.26;100.00
36010;BME280;22076;52.182;5.404;2024-03-23T05:38:30;102143.03;;;6.25;100.00
36010;BME280;22076;52.182;5.404;2024-03-23T05:40:56;102138.69;;;6.24;100.00
36010;BME280;22076;52.182;5.404;2024-03-23T05:43:23;102129.19;;;6.24;100.00
36010;BME280;22076;52.182;5.404;2024-03-23T05:45:53;102134.34;;;6.26;100.00
36010;BME280;22076;52.182;5.404;2024-03-23T05:48:21;102123.91;;;6.29;100.00
36010;BME280;22076;52.182;5.404;2024-03-23T05:50:47;102114.31;;;6.34;100.00
36010;BME280;22076;52.182;5.404;2024-03-23T05:53:14;102120.38;;;6.35;100.00
36010;BME280;22076;52.182;5.404;2024-03-23T05:55:40;102106.50;;;6.34;100.00
36010;BME280;22076;52.182;5.404;2024-03-23T05:58:06;102103.00;;;6.37;100.00
36010;BME280;22076;52.182;5.404;2024-03-23T06:00:32;102103.03;;;6.35;100.00
36010;BME280;22076;52.182;5.404;2024-03-23T06:02:58;102097.94;;;6.29;100.00
36010;BME280;22076;52.182;5.404;2024-03-23T06:05:25;102099.75;;;6.27;100.00
36010;BME280;22076;52.182;5.404;2024-03-23T06:07:52;102100.56;;;6.29;100.00
36010;BME280;22076;52.182;5.404;2024-03-23T06:10:18;102104.88;;;6.30;100.00
36010;BME280;22076;52.182;5.404;2024-03-23T06:12:46;102098.78;;;6.31;100.00
36010;BME280;22076;52.182;5.404;2024-03-23T06:15:11;102086.72;;;6.28;100.00
36010;BME280;22076;52.182;5.404;2024-03-23T06:17:38;102091.09;;;6.26;100.00
36010;BME280;22076;52.182;5.404;2024-03-23T06:20:05;102092.88;;;6.24;100.00
36010;BME280;22076;52.182;5.404;2024-03-23T06:22:33;102088.47;;;6.26;100.00
36010;BME280;22076;52.182;5.404;2024-03-23T06:24:58;102085.94;;;6.25;100.00
36010;BME280;22076;52.182;5.404;2024-03-23T06:27:25;102083.25;;;6.28;100.00
36010;BME280;22076;52.182;5.404;2024-03-23T06:29:51;102074.69;;;6.24;100.00
36010;BME280;22076;52.182;5.404;2024-03-23T06:32:17;102063.41;;;6.25;100.00
36010;BME280;22076;52.182;5.404;2024-03-23T06:34:43;102063.47;;;6.22;100.00
36010;BME280;22076;52.182;5.404;2024-03-23T06:37:11;102057.38;;;6.25;100.00
36010;BME280;22076;52.182;5.404;2024-03-23T06:39:38;102067.59;;;6.34;100.00
36010;BME280;22076;52.182;5.404;2024-03-23T06:42:05;102064.19;;;6.32;100.00
36010;BME280;22076;52.182;5.404;2024-03-23T06:44:30;102063.34;;;6.30;100.00
36010;BME280;22076;52.182;5.404;2024-03-23T06:46:57;102059.94;;;6.26;100.00
36010;BME280;22076;52.182;5.404;2024-03-23T06:49:23;102056.44;;;6.29;100.00
36010;BME280;22076;52.182;5.404;2024-03-23T06:51:50;102054.94;;;6.16;100.00
36010;BME280;22076;52.182;5.404;2024-03-23T06:54:16;102057.84;;;5.95;100.00
36010;BME280;22076;52.182;5.404;2024-03-23T06:56:45;102061.34;;;5.94;100.00
36010;BME280;22076;52.182;5.404;2024-03-23T06:59:11;102077.72;;;6.00;100.00
36010;BME280;22076;52.182;5.404;2024-03-23T07:01:37;102075.00;;;6.06;100.00
36010;BME280;22076;52.182;5.404;2024-03-23T07:04:04;102079.31;;;6.07;100.00
36010;BME280;22076;52.182;5.404;2024-03-23T07:06:30;102102.75;;;6.51;100.00
36010;BME280;22076;52.182;5.404;2024-03-23T07:10:39;102144.16;;;6.58;100.00
36010;BME280;22076;52.182;5.404;2024-03-23T07:13:06;102125.91;;;6.61;100.00
36010;BME280;22076;52.182;5.404;2024-03-23T07:15:32;102131.81;;;6.71;100.00
36010;BME280;22076;52.182;5.404;2024-03-23T07:17:58;102119.63;;;6.73;100.00
36010;BME280;22076;52.182;5.404;2024-03-23T07:20:24;102122.94;;;6.82;100.00
36010;BME280;22076;52.182;5.404;2024-03-23T07:22:50;102116.94;;;6.78;100.00
36010;BME280;22076;52.182;5.404;2024-03-23T07:25:16;102112.44;;;6.86;100.00
36010;BME280;22076;52.182;5.404;2024-03-23T07:27:44;102107.22;;;6.88;100.00
36010;BME280;22076;52.182;5.404;2024-03-23T07:30:10;102114.13;;;6.89;100.00
36010;BME280;22076;52.182;5.404;2024-03-23T07:32:36;102106.34;;;6.89;100.00
36010;BME280;22076;52.182;5.404;2024-03-23T07:35:03;102105.53;;;6.85;100.00
36010;BME280;22076;52.182;5.404;2024-03-23T07:37:29;102094.34;;;6.83;100.00
36010;BME280;22076;52.182;5.404;2024-03-23T07:39:56;102100.34;;;6.85;100.00
36010;BME280;22076;52.182;5.404;2024-03-23T07:42:23;102103.63;;;6.95;100.00
36010;BME280;22076;52.182;5.404;2024-03-23T07:44:50;102098.34;;;7.00;100.00
36010;BME280;22076;52.182;5.404;2024-03-23T07:47:16;102108.78;;;6.97;100.00
36010;BME280;22076;52.182;5.404;2024-03-23T07:49:42;102102.69;;;6.98;100.00
36010;BME280;22076;52.182;5.404;2024-03-23T07:52:08;102098.34;;;7.00;100.00
36010;BME280;22076;52.182;5.404;2024-03-23T07:54:34;102096.47;;;7.05;100.00
36010;BME280;22076;52.182;5.404;2024-03-23T07:57:00;102092.06;;;7.08;100.00
36010;BME280;22076;52.182;5.404;2024-03-23T07:59:26;102094.00;;;7.00;100.00
36010;BME280;22076;52.182;5.404;2024-03-23T08:01:54;102089.47;;;7.08;100.00
36010;BME280;22076;52.182;5.404;2024-03-23T08:04:20;102096.97;;;7.22;100.00
36010;BME280;22076;52.182;5.404;2024-03-23T08:06:47;102083.91;;;7.25;100.00
36010;BME280;22076;52.182;5.404;2024-03-23T08:09:12;102076.09;;;7.25;100.00
36010;BME280;22076;52.182;5.404;2024-03-23T08:11:39;102079.34;;;7.35;100.00
36010;BME280;22076;52.182;5.404;2024-03-23T08:14:04;102079.28;;;7.38;100.00
36010;BME280;22076;52.182;5.404;2024-03-23T08:16:31;102071.25;;;7.49;100.00
36010;BME280;22076;52.182;5.404;2024-03-23T08:19:05;102067.53;;;7.59;100.00
36010;BME280;22076;52.182;5.404;2024-03-23T08:21:33;102056.13;;;7.65;100.00
36010;BME280;22076;52.182;5.404;2024-03-23T08:23:59;102053.16;;;7.81;100.00
36010;BME280;22076;52.182;5.404;2024-03-23T08:26:25;102053.75;;;7.92;100.00
36010;BME280;22076;52.182;5.404;2024-03-23T08:28:51;102037.44;;;7.84;100.00
36010;BME280;22076;52.182;5.404;2024-03-23T08:31:17;102035.13;;;7.73;100.00
36010;BME280;22076;52.182;5.404;2024-03-23T08:33:43;102030.50;;;7.50;100.00
36010;BME280;22076;52.182;5.404;2024-03-23T08:36:11;102024.44;;;7.49;100.00
36010;BME280;22076;52.182;5.404;2024-03-23T08:38:37;102032.03;;;7.58;100.00
36010;BME280;22076;52.182;5.404;2024-03-23T08:41:06;102018.13;;;7.58;100.00
36010;BME280;22076;52.182;5.404;2024-03-23T08:43:36;102010.44;;;7.55;100.00
36010;BME280;22076;52.182;5.404;2024-03-23T08:46:06;102005.00;;;7.64;100.00
36010;BME280;22076;52.182;5.404;2024-03-23T08:48:32;101994.88;;;7.53;100.00
36010;BME280;22076;52.182;5.404;2024-03-23T08:51:00;101982.72;;;7.54;100.00
36010;BME280;22076;52.182;5.404;2024-03-23T08:53:28;101976.72;;;7.52;100.00
36010;BME280;22076;52.182;5.404;2024-03-23T08:55:55;101980.09;;;7.54;100.00
36010;BME280;22076;52.182;5.404;2024-03-23T08:58:22;101977.31;;;7.61;100.00
36010;BME280;22076;52.182;5.404;2024-03-23T09:00:49;101974.50;;;7.69;100.00
36010;BME280;22076;52.182;5.404;2024-03-23T09:03:15;101971.03;;;7.70;100.00
36010;BME280;22076;52.182;5.404;2024-03-23T09:05:42;101982.44;;;7.98;100.00
36010;BME280;22076;52.182;5.404;2024-03-23T09:08:07;101977.41;;;7.91;100.00
36010;BME280;22076;52.182;5.404;2024-03-23T09:10:38;101951.94;;;7.71;100.00
36010;BME280;22076;52.182;5.404;2024-03-23T09:13:04;101956.84;;;7.82;100.00
36010;BME280;22076;52.182;5.404;2024-03-23T09:15:31;101944.75;;;7.80;100.00
36010;BME280;22076;52.182;5.404;2024-03-23T09:17:58;101931.50;;;7.89;100.00
36010;BME280;22076;52.182;5.404;2024-03-23T09:20:25;101922.19;;;7.80;100.00
36010;BME280;22076;52.182;5.404;2024-03-23T09:22:51;101914.44;;;7.78;100.00
36010;BME280;22076;52.182;5.404;2024-03-23T09:25:17;101910.72;;;7.87;100.00
36010;BME280;22076;52.182;5.404;2024-03-23T09:27:45;101914.84;;;7.94;100.00
36010;BME280;22076;52.182;5.404;2024-03-23T09:30:13;101978.97;;;7.99;100.00
36010;BME280;22076;52.182;5.404;2024-03-23T09:32:39;101972.84;;;8.00;100.00
36010;BME280;22076;52.182;5.404;2024-03-23T09:35:05;101970.75;;;8.13;100.00
36010;BME280;22076;52.182;5.404;2024-03-23T09:37:31;101971.41;;;8.21;100.00
36010;BME280;22076;52.182;5.404;2024-03-23T09:39:58;101955.25;;;8.39;100.00
36010;BME280;22076;52.182;5.404;2024-03-23T09:42:23;101953.69;;;8.34;100.00
36010;BME280;22076;52.182;5.404;2024-03-23T09:44:52;101952.69;;;8.38;100.00
36010;BME280;22076;52.182;5.404;2024-03-23T09:47:18;101936.50;;;8.58;100.00
36010;BME280;22076;52.182;5.404;2024-03-23T09:49:44;101929.03;;;8.47;100.00
36010;BME280;22076;52.182;5.404;2024-03-23T09:52:10;101928.16;;;8.45;100.00
36010;BME280;22076;52.182;5.404;2024-03-23T09:54:37;101933.84;;;8.59;100.00
36010;BME280;22076;52.182;5.404;2024-03-23T09:57:04;101947.94;;;8.82;100.00
36010;BME280;22076;52.182;5.404;2024-03-23T09:59:32;101942.47;;;8.90;100.00
36010;BME280;22076;52.182;5.404;2024-03-23T10:02:00;101943.25;;;8.92;100.00
36010;BME280;22076;52.182;5.404;2024-03-23T10:04:36;101944.28;;;8.88;100.00
36010;BME280;22076;52.182;5.404;2024-03-23T10:07:10;101955.47;;;8.91;100.00
36010;BME280;22076;52.182;5.404;2024-03-23T10:09:37;101965.69;;;8.98;100.00
36010;BME280;22076;52.182;5.404;2024-03-23T10:12:11;101966.59;;;8.97;100.00
36010;BME280;22076;52.182;5.404;2024-03-23T10:14:39;101965.41;;;8.79;100.00
36010;BME280;22076;52.182;5.404;2024-03-23T10:17:16;101958.47;;;8.49;100.00
36010;BME280;22076;52.182;5.404;2024-03-23T10:19:44;101964.69;;;8.43;100.00
36010;BME280;22076;52.182;5.404;2024-03-23T10:22:13;101970.53;;;8.52;100.00
36010;BME280;22076;52.182;5.404;2024-03-23T10:24:40;101980.00;;;8.84;100.00
36010;BME280;22076;52.182;5.404;2024-03-23T10:27:05;101976.41;;;8.88;100.00
36010;BME280;22076;52.182;5.404;2024-03-23T10:29:32;101975.78;;;9.08;100.00
36010;BME280;22076;52.182;5.404;2024-03-23T10:32:08;101954.22;;;9.30;100.00
36010;BME280;22076;52.182;5.404;2024-03-23T10:34:37;101937.81;;;9.26;100.00
36010;BME280;22076;52.182;5.404;2024-03-23T10:37:03;101925.63;;;9.27;100.00
36010;BME280;22076;52.182;5.404;2024-03-23T10:39:33;101908.16;;;9.04;100.00
36010;BME280;22076;52.182;5.404;2024-03-23T10:42:02;101897.94;;;8.98;100.00
36010;BME280;22076;52.182;5.404;2024-03-23T10:44:29;101904.44;;;9.11;100.00
36010;BME280;22076;52.182;5.404;2024-03-23T10:46:56;101902.59;;;9.15;100.00
36010;BME280;22076;52.182;5.404;2024-03-23T10:49:26;101896.91;;;9.02;100.00
36010;BME280;22076;52.182;5.404;2024-03-23T10:51:57;101874.56;;;8.95;100.00
36010;BME280;22076;52.182;5.404;2024-03-23T10:54:24;101881.03;;;8.83;100.00
36010;BME280;22076;52.182;5.404;2024-03-23T10:56:54;101864.19;;;8.66;100.00
36010;BME280;22076;52.182;5.404;2024-03-23T10:59:23;101871.19;;;8.64;100.00
36010;BME280;22076;52.182;5.404;2024-03-23T11:01:55;101881.50;;;8.67;100.00
36010;BME280;22076;52.182;5.404;2024-03-23T11:04:35;101897.94;;;8.69;100.00
36010;BME280;22076;52.182;5.404;2024-03-23T11:07:28;101928.56;;;8.89;100.00
36010;BME280;22076;52.182;5.404;2024-03-23T11:09:54;101926.69;;;9.21;100.00
36010;BME280;22076;52.182;5.404;2024-03-23T11:12:30;101915.28;;;9.51;100.00
36010;BME280;22076;52.182;5.404;2024-03-23T11:15:00;101930.63;;;9.60;100.00
36010;BME280;22076;52.182;5.404;2024-03-23T11:17:27;101922.41;;;9.71;100.00
36010;BME280;22076;52.182;5.404;2024-03-23T11:19:54;101919.88;;;9.93;100.00
36010;BME280;22076;52.182;5.404;2024-03-23T11:22:42;101903.47;;;9.89;100.00
36010;BME280;22076;52.182;5.404;2024-03-23T11:25:15;101891.50;;;10.07;100.00
36010;BME280;22076;52.182;5.404;2024-03-23T11:27:44;101868.28;;;9.76;100.00
36010;BME280;22076;52.182;5.404;2024-03-23T11:30:20;101870.00;;;9.52;100.00
36010;BME280;22076;52.182;5.404;2024-03-23T11:32:50;101868.41;;;9.48;100.00
36010;BME280;22076;52.182;5.404;2024-03-23T11:35:25;101852.94;;;9.18;100.00
36010;BME280;22076;52.182;5.404;2024-03-23T11:38:04;101846.13;;;9.14;100.00
36010;BME280;22076;52.182;5.404;2024-03-23T11:40:31;101847.50;;;9.24;100.00
36010;BME280;22076;52.182;5.404;2024-03-23T11:42:58;101853.66;;;9.47;100.00
36010;BME280;22076;52.182;5.404;2024-03-23T11:45:24;101857.03;;;9.50;100.00
36010;BME280;22076;52.182;5.404;2024-03-23T11:48:02;101843.09;;;9.51;100.00
36010;BME280;22076;52.182;5.404;2024-03-23T11:50:27;101839.31;;;9.84;100.00
36010;BME280;22076;52.182;5.404;2024-03-23T11:53:13;101854.66;;;10.15;100.00
36010;BME280;22076;52.182;5.404;2024-03-23T11:55:41;101861.00;;;10.32;100.00
36010;BME280;22076;52.182;5.404;2024-03-23T11:58:09;101858.19;;;10.38;100.00
36010;BME280;22076;52.182;5.404;2024-03-23T12:00:35;101831.47;;;10.30;100.00
36010;BME280;22076;52.182;5.404;2024-03-23T12:03:02;101795.13;;;10.01;100.00
36010;BME280;22076;52.182;5.404;2024-03-23T12:05:29;101791.03;;;10.18;100.00
36010;BME280;22076;52.182;5.404;2024-03-23T12:10:38;101798.31;;;10.32;100.00
36010;BME280;22076;52.182;5.404;2024-03-23T12:13:04;101790.63;;;10.51;100.00
36010;BME280;22076;52.182;5.404;2024-03-23T12:15:30;101757.63;;;10.26;100.00
36010;BME280;22076;52.182;5.404;2024-03-23T12:18:06;101761.31;;;10.20;100.00
36010;BME280;22076;52.182;5.404;2024-03-23T12:20:32;101763.03;;;10.44;100.00
36010;BME280;22076;52.182;5.404;2024-03-23T12:23:08;101753.50;;;10.20;100.00
36010;BME280;22076;52.182;5.404;2024-03-23T12:25:35;101759.59;;;10.43;100.00
36010;BME280;22076;52.182;5.404;2024-03-23T12:28:03;101755.63;;;10.55;100.00
36010;BME280;22076;52.182;5.404;2024-03-23T12:30:32;101734.97;;;10.27;100.00
36010;BME280;22076;52.182;5.404;2024-03-23T12:32:58;101732.81;;;10.16;100.00
36010;BME280;22076;52.182;5.404;2024-03-23T12:35:24;101736.09;;;10.43;100.00
36010;BME280;22076;52.182;5.404;2024-03-23T12:37:50;101748.88;;;10.49;100.00
36010;BME280;22076;52.182;5.404;2024-03-23T12:40:16;101723.19;;;10.38;100.00
36010;BME280;22076;52.182;5.404;2024-03-23T12:42:43;101707.84;;;10.08;100.00
36010;BME280;22076;52.182;5.404;2024-03-23T12:45:10;101692.91;;;9.90;100.00
36010;BME280;22076;52.182;5.404;2024-03-23T12:47:36;101692.44;;;10.23;100.00
36010;BME280;22076;52.182;5.404;2024-03-23T12:50:02;101703.75;;;10.46;100.00
36010;BME280;22076;52.182;5.404;2024-03-23T12:52:29;101706.34;;;10.66;100.00
36010;BME280;22076;52.182;5.404;2024-03-23T12:54:55;101702.81;;;10.88;100.00
36010;BME280;22076;52.182;5.404;2024-03-23T12:57:23;101716.69;;;11.09;100.00
36010;BME280;22076;52.182;5.404;2024-03-23T12:59:49;101710.44;;;11.13;100.00
36010;BME280;22076;52.182;5.404;2024-03-23T13:02:18;101681.19;;;11.24;100.00
36010;BME280;22076;52.182;5.404;2024-03-23T13:04:44;101677.72;;;10.84;100.00
36010;BME280;22076;52.182;5.404;2024-03-23T13:07:11;101633.59;;;10.36;100.00
36010;BME280;22076;52.182;5.404;2024-03-23T13:09:38;101628.56;;;10.52;100.00
36010;BME280;22076;52.182;5.404;2024-03-23T13:12:05;101622.53;;;10.71;100.00
36010;BME280;22076;52.182;5.404;2024-03-23T13:14:30;101625.88;;;10.94;100.00
36010;BME280;22076;52.182;5.404;2024-03-23T13:16:57;101600.97;;;11.05;100.00
36010;BME280;22076;52.182;5.404;2024-03-23T13:19:24;101581.31;;;10.97;100.00
36010;BME280;22076;52.182;5.404;2024-03-23T13:21:53;101565.59;;;10.78;100.00
36010;BME280;22076;52.182;5.404;2024-03-23T13:24:21;101577.13;;;10.73;100.00
36010;BME280;22076;52.182;5.404;2024-03-23T13:26:49;101591.19;;;10.90;100.00
36010;BME280;22076;52.182;5.404;2024-03-23T13:29:15;101602.00;;;10.82;100.00
36010;BME280;22076;52.182;5.404;2024-03-23T13:31:42;101586.13;;;10.47;100.00
36010;BME280;22076;52.182;5.404;2024-03-23T13:34:07;101554.13;;;10.01;100.00
36010;BME280;22076;52.182;5.404;2024-03-23T13:36:35;101542.69;;;9.83;100.00
36010;BME280;22076;52.182;5.404;2024-03-23T13:39:01;101542.09;;;9.76;100.00
36010;BME280;22076;52.182;5.404;2024-03-23T13:41:30;101557.81;;;9.74;100.00
36010;BME280;22076;52.182;5.404;2024-03-23T13:43:56;101578.13;;;9.88;100.00